Mitteilungen von N7QME - Kartenansicht · Info · Telemetrie · Wetter · Rohdaten · Status · Baken · Mitteilungen · Nachrichten · durchsuchen · bewegend · Mein Benutzerkonto
Rufzeichen:
Zeige:

Lade message Pakete...

APRS Mitteilungen werden für 14 Tage gespeichert. Es ist möglich bei der Suche einen Platzhalter (*?) nach dem Präfix zu verwenden.

2021-05-06 11:07:27 EDT: N7QME-2>N7QME: Bilge fore 0 0 0 mid 1 0 0 aft 1 0 0
2021-05-06 11:10:44 EDT: MTHOOD>N7QME: hum 42 13 72 10 255 100 193 215
2021-05-06 11:14:37 EDT: N7QME-2>N7QME: hum g 53 v 56 o 74 e 46 f 56. b .70 w 64. h 61. Low 4 5 6 7 8
2021-05-06 11:26:05 EDT: N7QME-2>N7QME: system phv 13.35 bv 13.36 bc 0.00 bp 0.0 tp 33 rt -8528
2021-05-06 11:31:17 EDT: N7QME-2>N7QME: system phv 13.35 bv 13.35 bc 0.00 bp 0.0 tp 33 rt -8528
2021-05-06 11:34:30 EDT: N7QME-2>N7QME: dinghy 08:32:52 p 12.09 v 12.74 s LOW
2021-05-06 11:39:17 EDT: N7QME-2>N7QME: bms B1 13.32 21 0.0 64.2 65.5 0
2021-05-06 11:45:25 EDT: N7QME-2>N7QME: bms B1 13.32 24 0.0 64.0 65.5 0
2021-05-06 11:48:08 EDT: MTHOOD>N7QME: temps 53.700 87.600 43.100 56.400 369.500 369.300 83.200 337.300
2021-05-06 12:01:18 EDT: MTHOOD>N7QME: hum 42 12 76 10 255 100 193 215
2021-05-06 12:04:19 EDT: N7QME-2>N7QME: bms B2 13.43 21 5.5 63.3 64.2 0
2021-05-06 12:04:27 EDT: N7QME-2>N7QME: bms B2 13.43 20 5.5 63.3 64.2 0
2021-05-06 12:04:42 EDT: N7QME-2>N7QME: system phv 13.46 bv 13.40 bc 7.50 bp 100.5 tp 51 rt -8510
2021-05-06 12:13:49 EDT: N7QME-2>N7QME: 13.48 69.8 41 15 8.9
2021-05-06 12:22:25 EDT: N7QME-2>N7QME: temps g 64 v 63 o 59. e 67 f 38 b 58 w 62 h 58 Low 4 5 6 7 8
2021-05-06 12:29:12 EDT: N7QME-2>N7QME: Bilge fore 0 0 0 mid 1 0 0 aft 1 0 0
2021-05-06 12:36:53 EDT: N7QME-2>N7QME: system phv 13.45 bv 13.41 bc 7.00 bp 93.9 tp 91 rt -8473
2021-05-06 12:41:10 EDT: N7QME-2>N7QME: hum g .50 v .55 o .71 e 46 f 47 b 69. w 65 h 61 Low 4 5 6 7 8
2021-05-06 12:41:23 EDT: MTHOOD>N7QME: temps 53.500 87.800 45.700 56.300 369.500 369.300 83.200 337.300
2021-05-06 12:43:48 EDT: N7QME-2>N7QME: 13.48 70.5 42 15 9.3
2021-05-06 12:53:33 EDT: MTHOOD>N7QME: hum 42 14 73 11 255 100 193 215
2021-05-06 12:56:16 EDT: N7QME-2>N7QME: temps g 67 v 64. o 61. e 66 f .36 b 58 w 63 h 58 Low 4 5 6 7 8
2021-05-06 13:01:30 EDT: N7QME-2>N7QME: Bilge fore 0 0 0 mid 1 0 0 aft 1 0 0
2021-05-06 13:09:10 EDT: N7QME-2>N7QME: dinghy 10:08:01 p 12.21 v 12.82 s holding
2021-05-06 13:11:57 EDT: N7QME-2>N7QME: system phv 13.49 bv 13.44 bc 7.80 bp 104.8 tp 147 rt -8420
2021-05-06 13:13:48 EDT: N7QME-2>N7QME: 13.51 71.1 42 15 8.9
2021-05-06 13:20:35 EDT: N7QME-2>N7QME: system phv 13.52 bv 13.46 bc 15.10 bp 203.2 tp 165 rt -8403
2021-05-06 13:24:37 EDT: N7QME-2>N7QME: hum g .47 v .53 o .66 e 47. f .50 b 70 w 64 h 61 Low 4 5 6 7 8
2021-05-06 13:33:46 EDT: MTHOOD>N7QME: temps 53.500 88.700 47.300 56.400 369.500 369.300 83.200 337.300
2021-05-06 13:38:45 EDT: N7QME-2>N7QME: bms B1 13.45 18 4.5 63.9 65.3 0
2021-05-06 13:43:47 EDT: N7QME-2>N7QME: 13.56 72.1 42 15 8.8
2021-05-06 13:46:12 EDT: N7QME-2>N7QME: system phv 13.58 bv 13.50 bc 16.50 bp 222.7 tp 232 rt -8340
2021-05-06 13:47:18 EDT: MTHOOD>N7QME: hum 42 15 65 13 255 100 193 215
2021-05-06 13:48:45 EDT: N7QME-2>N7QME: bms B1 13.46 15 6.0 63.9 65.3 0
2021-05-06 14:00:05 EDT: N7QME-2>N7QME: bms B2 13.52 23 8.5 63.3 64.2 0
2021-05-06 14:15:02 EDT: N7QME-2>N7QME: bms B2 13.51 25 7.3 63.1 64.2 0
2021-05-06 14:18:57 EDT: N7QME-2>N7QME: system phv 13.57 bv 13.48 bc 11.80 bp 159.1 tp 324 rt -8252
2021-05-06 14:20:00 EDT: N7QME-2>N7QME: temps g 67 v 66 o 64. e 66 f 38 b 58 w 63 h 58 Low 4 5 6 7 8
2021-05-06 14:26:28 EDT: MTHOOD>N7QME: temps 53.600 89.200 47.800 56.400 369.500 369.300 83.200 337.300
2021-05-06 14:34:41 EDT: N7QME-2>N7QME: dinghy 11:32:36 p 12.21 v 12.84 s holding
2021-05-06 14:38:47 EDT: N7QME-2>N7QME: Bilge fore 0 0 0 mid 1 0 0 aft 1 0 0
2021-05-06 14:38:58 EDT: MTHOOD>N7QME: hum 42 12 74 14 255 100 193 215
2021-05-06 14:41:44 EDT: N7QME-2>N7QME: hum g .50 v .51 o .61 e 47 f 57. b 71. w .63 h 62. Low 4 5 6 7 8
2021-05-06 14:43:46 EDT: N7QME-2>N7QME: 13.58 75.0 43 16 7.2
2021-05-06 14:59:24 EDT: N7QME-2>N7QME: Bilge fore 1 0 0 mid 1 0 0 aft 1 0 0
2021-05-06 15:03:17 EDT: N7QME-2>N7QME: temps g 70 v 67 o 66. e 65 f 39 b 58 w 64 h 58 Low 4 5 6 7 8
2021-05-06 15:13:46 EDT: N7QME-2>N7QME: 13.56 76.3 42 16 9.3
2021-05-06 15:17:48 EDT: MTHOOD>N7QME: temps 53.700 89.300 48.200 56.500 369.500 369.300 83.200 337.300
2021-05-06 15:19:08 EDT: N7QME-2>N7QME: system phv 13.59 bv 13.50 bc 12.70 bp 171.4 tp 445 rt -8138
2021-05-06 15:23:51 EDT: N7QME-2>N7QME: system phv 13.59 bv 13.49 bc 11.20 bp 151.1 tp 455 rt -8129
< vorhergehender
User guide · FAQ · Blog · Diskussionsgruppe · Link zu aprs.fi · AIS-Sites · Status des Servers · Datenbank Statistiken · Werbe auf aprs.fi · Technische Details · API · Änderungen · geplante Änderungen · Dank an · Nutzungsbedingungen · iPhone/iPad APRS